createdAt,value
2023-05-02T00:01:15.173Z,39.74
2023-05-02T00:10:54.357Z,39.93
2023-05-02T00:13:45.139Z,39.92
2023-05-02T00:16:17.294Z,39.86
2023-05-02T00:19:33.004Z,39.78
2023-05-02T00:22:49.645Z,39.74
2023-05-02T00:28:34.413Z,39.89
2023-05-02T00:34:55.348Z,39.91
2023-05-02T00:40:53.555Z,39.71
2023-05-02T00:43:32.542Z,39.66
2023-05-02T00:49:44.012Z,39.86
2023-05-02T00:52:20.180Z,39.84
2023-05-02T00:55:35.268Z,39.83
2023-05-02T00:58:18.032Z,39.86
2023-05-02T01:04:37.828Z,39.68
2023-05-02T01:11:22.326Z,39.76
2023-05-02T01:13:53.666Z,39.78
2023-05-02T01:16:46.053Z,39.81
2023-05-02T01:19:37.935Z,39.78
2023-05-02T01:22:35.876Z,39.78
2023-05-02T01:26:10.323Z,39.76
2023-05-02T01:28:57.838Z,39.78
2023-05-02T01:31:57.388Z,39.72
2023-05-02T01:34:56.245Z,39.69
2023-05-02T01:37:32.493Z,39.69
2023-05-02T01:44:03.682Z,39.66
2023-05-02T01:46:51.805Z,39.66
2023-05-02T01:53:07.790Z,39.75
2023-05-02T01:55:44.142Z,38.72
2023-05-02T02:01:52.217Z,39.43
2023-05-02T02:04:25.540Z,38.44
2023-05-02T02:07:39.194Z,38.31
2023-05-02T02:29:32.254Z,39.45
2023-05-02T02:32:03.684Z,39.46
2023-05-02T02:34:51.024Z,39.47
2023-05-02T02:37:38.543Z,39.46
2023-05-02T02:40:43.040Z,39.47
2023-05-02T02:43:39.944Z,39.48
2023-05-02T02:46:47.321Z,39.51
2023-05-02T02:49:45.326Z,39.48
2023-05-02T02:53:01.235Z,39.48
2023-05-02T02:55:59.089Z,39.48
2023-05-02T02:58:37.350Z,39.48
2023-05-02T03:03:55.980Z,39.48
2023-05-02T03:06:28.085Z,39.46
2023-05-02T03:08:58.724Z,39.48
2023-05-02T03:11:29.581Z,39.46
2023-05-02T03:14:01.632Z,39.43
2023-05-02T03:17:10.037Z,39.40
2023-05-02T03:20:16.359Z,39.41
2023-05-02T03:23:05.112Z,39.41
2023-05-02T03:31:44.741Z,39.39
2023-05-02T03:37:04.314Z,39.37
2023-05-02T03:39:34.255Z,39.35
2023-05-02T03:42:04.369Z,39.36
2023-05-02T03:44:50.076Z,39.33
2023-05-02T03:47:21.641Z,39.32
2023-05-02T03:53:16.603Z,39.27
2023-05-02T03:56:21.504Z,39.27
2023-05-02T03:59:34.067Z,39.26
2023-05-02T04:02:18.656Z,39.25
2023-05-02T04:09:25.826Z,39.25
2023-05-02T04:10:19.667Z,39.18
2023-05-02T04:12:49.906Z,39.18
2023-05-02T04:15:20.494Z,39.17
2023-05-02T04:17:50.584Z,39.16
2023-05-02T04:20:27.148Z,39.13
2023-05-02T04:26:07.421Z,39.10
2023-05-02T04:29:01.851Z,39.07
2023-05-02T04:31:49.688Z,39.05
2023-05-02T04:34:19.667Z,39.05
2023-05-02T04:36:49.724Z,39.05
2023-05-02T04:39:19.773Z,39.02
2023-05-02T04:41:50.270Z,39.01
2023-05-02T04:44:21.355Z,39.00
2023-05-02T04:47:01.470Z,38.99
2023-05-02T04:49:59.665Z,38.95
2023-05-02T04:53:07.053Z,38.97
2023-05-02T04:56:11.389Z,38.96
2023-05-02T04:59:03.617Z,38.95
2023-05-02T05:01:49.129Z,38.91
2023-05-02T05:04:19.672Z,38.94
2023-05-02T05:06:50.148Z,38.94
2023-05-02T05:09:20.147Z,38.92
2023-05-02T05:11:50.120Z,38.89
2023-05-02T05:14:20.039Z,38.90
2023-05-02T05:16:52.407Z,38.88
2023-05-02T05:19:22.731Z,38.88
2023-05-02T05:21:53.650Z,38.88
2023-05-02T05:24:24.037Z,38.84
2023-05-02T05:26:55.851Z,38.89
2023-05-02T05:29:26.171Z,38.85
2023-05-02T05:32:37.129Z,38.86
2023-05-02T05:37:56.260Z,38.79
2023-05-02T05:40:28.493Z,38.79
2023-05-02T05:42:58.409Z,38.80
2023-05-02T05:45:28.675Z,38.79
2023-05-02T05:47:59.049Z,38.81
2023-05-02T05:50:29.297Z,38.80
2023-05-02T05:53:04.120Z,38.80
2023-05-02T05:55:35.982Z,38.81
2023-05-02T05:58:05.555Z,38.77
2023-05-02T06:00:38.918Z,38.78
2023-05-02T06:03:10.063Z,38.78
2023-05-02T06:05:40.370Z,38.79
2023-05-02T06:08:24.431Z,38.78
2023-05-02T06:11:20.838Z,38.75
2023-05-02T06:14:30.683Z,38.73
2023-05-02T06:17:03.408Z,38.73
2023-05-02T06:19:33.298Z,38.72
2023-05-02T06:22:04.594Z,38.72
2023-05-02T06:24:34.350Z,38.72
2023-05-02T06:27:04.130Z,38.71
2023-05-02T06:29:47.982Z,38.70
2023-05-02T06:32:24.160Z,38.70
2023-05-02T06:35:30.571Z,38.67
2023-05-02T06:41:39.650Z,38.66
2023-05-02T06:47:21.522Z,38.61
2023-05-02T06:50:41.254Z,38.67
2023-05-02T07:02:38.047Z,38.60
2023-05-02T07:05:23.856Z,38.59
2023-05-02T07:08:18.788Z,38.57
2023-05-02T07:13:42.526Z,38.55
2023-05-02T07:16:12.792Z,38.53
2023-05-02T07:18:43.161Z,38.52
2023-05-02T07:21:13.090Z,38.48
2023-05-02T07:23:50.133Z,38.50
2023-05-02T07:26:33.443Z,38.47
2023-05-02T07:42:33.837Z,38.39
2023-05-02T07:45:15.398Z,38.35
2023-05-02T07:51:11.868Z,38.40
2023-05-02T07:53:41.828Z,38.39
2023-05-02T07:56:31.954Z,38.37
2023-05-02T08:02:01.299Z,38.34
2023-05-02T08:04:31.689Z,38.30
2023-05-02T08:07:01.720Z,38.36
2023-05-02T08:09:31.876Z,38.30
2023-05-02T08:12:03.367Z,38.30
2023-05-02T08:14:40.851Z,38.28
2023-05-02T08:20:48.461Z,38.35
2023-05-02T08:23:36.061Z,38.25
2023-05-02T08:29:26.992Z,38.34
2023-05-02T08:31:57.545Z,38.23
2023-05-02T08:34:27.465Z,38.22
2023-05-02T08:36:58.751Z,38.26
2023-05-02T08:39:28.740Z,38.26
2023-05-02T08:41:58.652Z,38.20
2023-05-02T08:48:16.801Z,38.25
2023-05-02T08:54:33.967Z,38.16
2023-05-02T08:59:53.583Z,38.18
2023-05-02T09:02:56.625Z,38.14
2023-05-02T09:06:01.366Z,38.14
2023-05-02T09:08:45.150Z,38.14
2023-05-02T09:11:48.831Z,38.16
2023-05-02T09:14:39.213Z,38.15
2023-05-02T09:18:02.097Z,38.10
2023-05-02T09:19:41.233Z,38.12
2023-05-02T09:22:11.349Z,38.13
2023-05-02T09:24:42.615Z,38.09
2023-05-02T09:27:12.496Z,38.03
2023-05-02T09:29:47.715Z,38.06
2023-05-02T09:32:58.641Z,38.01
2023-05-02T09:35:44.529Z,37.98
2023-05-02T09:38:42.197Z,37.97
2023-05-02T09:41:12.497Z,38.06
2023-05-02T09:43:43.577Z,37.97
2023-05-02T09:46:14.088Z,37.96
2023-05-02T09:48:59.330Z,37.97
2023-05-02T09:51:29.362Z,37.93
2023-05-02T09:54:00.242Z,37.95
2023-05-02T09:59:50.011Z,37.91
2023-05-02T10:05:08.770Z,37.83
2023-05-02T10:07:38.703Z,37.93
2023-05-02T10:10:09.704Z,37.88
2023-05-02T10:15:31.682Z,37.93
2023-05-02T10:18:03.799Z,37.83
2023-05-02T10:20:54.718Z,37.90
2023-05-02T10:26:05.792Z,37.89
2023-05-02T10:28:35.685Z,37.85
2023-05-02T10:31:06.940Z,37.83
2023-05-02T10:33:37.147Z,37.80
2023-05-02T10:36:15.174Z,37.79
2023-05-02T10:45:33.840Z,37.72
2023-05-02T10:48:19.936Z,37.75
2023-05-02T10:51:07.236Z,37.74
2023-05-02T10:54:30.937Z,37.75
2023-05-02T10:59:57.977Z,37.66
2023-05-02T11:02:59.964Z,37.71
2023-05-02T11:09:23.987Z,37.65
2023-05-02T11:12:15.332Z,37.68
2023-05-02T11:18:04.558Z,37.70
2023-05-02T11:21:09.412Z,37.68
2023-05-02T11:24:03.658Z,37.62
2023-05-02T11:26:29.362Z,37.64
2023-05-02T11:29:00.948Z,37.67
2023-05-02T11:31:33.577Z,37.61
2023-05-02T11:34:05.381Z,37.63
2023-05-02T11:36:36.389Z,37.60
2023-05-02T11:39:24.353Z,37.60
2023-05-02T11:42:06.784Z,37.56
2023-05-02T11:45:02.236Z,37.61
2023-05-02T11:50:10.651Z,37.43
2023-05-02T11:52:40.821Z,37.52
2023-05-02T11:55:15.655Z,37.51
2023-05-02T11:57:45.603Z,37.58
2023-05-02T12:06:15.249Z,37.61
2023-05-02T12:09:34.874Z,37.60
2023-05-02T12:12:28.123Z,37.60
2023-05-02T12:16:00.917Z,37.67
2023-05-02T12:18:31.822Z,37.72
2023-05-02T12:21:31.074Z,37.65
2023-05-02T12:24:37.637Z,37.74
2023-05-02T12:27:15.532Z,37.69
2023-05-02T12:30:16.128Z,37.72
2023-05-02T12:33:06.632Z,37.65
2023-05-02T12:35:36.775Z,37.59
2023-05-02T12:38:13.966Z,37.53
2023-05-02T12:40:55.509Z,37.54
2023-05-02T12:43:26.024Z,37.55
2023-05-02T12:46:13.589Z,37.58
2023-05-02T12:48:45.524Z,37.59
2023-05-02T12:51:43.970Z,37.65
2023-05-02T12:54:16.597Z,37.69
2023-05-02T13:00:16.159Z,37.80
2023-05-02T13:03:14.572Z,37.86
2023-05-02T13:08:39.297Z,38.09
2023-05-02T13:11:09.240Z,38.24
2023-05-02T13:13:39.267Z,38.27
2023-05-02T13:16:12.918Z,38.30
2023-05-02T13:18:45.314Z,38.31
2023-05-02T13:21:27.182Z,38.29
2023-05-02T13:24:46.896Z,38.30
2023-05-02T13:27:35.516Z,38.28
2023-05-02T13:30:17.308Z,38.28
2023-05-02T13:32:47.520Z,38.26
2023-05-02T13:35:18.968Z,38.27
2023-05-02T13:37:48.990Z,38.28
2023-05-02T13:40:19.100Z,38.24
2023-05-02T13:43:07.951Z,38.26
2023-05-02T13:45:39.317Z,38.22
2023-05-02T13:51:39.213Z,38.18
2023-05-02T13:54:32.361Z,38.26
2023-05-02T13:57:40.718Z,38.27
2023-05-02T14:03:35.408Z,38.29
2023-05-02T14:06:39.944Z,38.29
2023-05-02T14:15:23.038Z,38.31
2023-05-02T14:17:53.244Z,38.33
2023-05-02T14:20:24.932Z,38.29
2023-05-02T14:22:56.263Z,38.30
2023-05-02T14:25:26.817Z,38.28
2023-05-02T14:27:57.808Z,38.28
2023-05-02T14:30:34.547Z,38.27
2023-05-02T14:33:27.780Z,38.27
2023-05-02T14:38:47.219Z,38.22
2023-05-02T14:41:17.119Z,38.25
2023-05-02T14:43:48.518Z,38.20
2023-05-02T14:46:18.400Z,38.21
2023-05-02T14:48:48.326Z,38.21
2023-05-02T14:51:52.710Z,38.21
2023-05-02T14:54:40.106Z,38.21
2023-05-02T15:03:56.643Z,38.25
2023-05-02T15:09:52.259Z,38.23
2023-05-02T15:12:29.271Z,38.24
2023-05-02T15:15:00.307Z,38.23
2023-05-02T15:17:32.417Z,38.25
2023-05-02T15:20:02.575Z,38.25
2023-05-02T15:22:32.828Z,38.26
2023-05-02T15:28:21.999Z,38.26
2023-05-02T15:30:52.077Z,38.21
2023-05-02T15:33:48.366Z,38.25
2023-05-02T15:36:35.710Z,38.25
2023-05-02T15:41:58.651Z,38.29
2023-05-02T15:44:29.859Z,38.26
2023-05-02T15:47:00.541Z,38.28
2023-05-02T15:49:34.519Z,38.27
2023-05-02T15:52:21.331Z,38.30
2023-05-02T15:54:52.947Z,38.29
2023-05-02T15:58:15.274Z,38.31
2023-05-02T16:00:45.536Z,38.29
2023-05-02T16:03:48.078Z,38.30
2023-05-02T16:09:36.766Z,38.34
2023-05-02T16:12:08.034Z,38.36
2023-05-02T16:14:37.915Z,38.38
2023-05-02T16:17:09.437Z,38.41
2023-05-02T16:19:39.562Z,38.38
2023-05-02T16:22:10.620Z,38.42
2023-05-02T16:25:08.638Z,38.41
2023-05-02T16:27:50.923Z,38.41
2023-05-02T16:30:54.914Z,38.41
2023-05-02T16:36:41.975Z,38.44
2023-05-02T16:39:11.850Z,38.45
2023-05-02T16:41:42.078Z,38.45
2023-05-02T16:44:11.954Z,38.48
2023-05-02T16:46:42.221Z,38.46
2023-05-02T16:49:12.199Z,38.46
2023-05-02T16:51:57.164Z,38.49
2023-05-02T16:54:54.211Z,38.49
2023-05-02T17:00:54.334Z,38.50
2023-05-02T17:03:15.373Z,38.51
2023-05-02T17:05:45.246Z,38.55
2023-05-02T17:08:15.596Z,38.55
2023-05-02T17:13:48.256Z,38.56
2023-05-02T17:19:27.746Z,38.54
2023-05-02T17:25:38.072Z,38.53
2023-05-02T17:28:44.002Z,38.53
2023-05-02T17:31:14.185Z,38.54
2023-05-02T17:33:56.073Z,38.58
2023-05-02T17:36:27.132Z,38.61
2023-05-02T17:38:57.144Z,38.63
2023-05-02T17:41:28.612Z,38.65
2023-05-02T17:43:59.233Z,38.64
2023-05-02T17:46:31.842Z,38.66
2023-05-02T17:52:07.477Z,38.67
2023-05-02T17:57:30.742Z,38.71
2023-05-02T18:00:01.775Z,38.71
2023-05-02T18:02:34.598Z,38.72
2023-05-02T18:05:04.941Z,38.74
2023-05-02T18:07:35.139Z,38.74
2023-05-02T18:10:25.546Z,38.77
2023-05-02T18:13:04.996Z,38.77
2023-05-02T18:15:34.310Z,38.78
2023-05-02T18:18:04.268Z,38.77
2023-05-02T18:20:34.356Z,38.80
2023-05-02T18:23:04.449Z,38.79
2023-05-02T18:25:36.499Z,38.81
2023-05-02T18:28:20.265Z,38.80
2023-05-02T18:31:20.025Z,38.81
2023-05-02T18:37:18.819Z,38.83
2023-05-02T18:40:11.544Z,38.85
2023-05-02T18:46:14.663Z,38.86
2023-05-02T18:49:13.423Z,38.89
2023-05-02T18:51:46.005Z,38.89
2023-05-02T18:54:15.214Z,38.88
2023-05-02T18:56:45.124Z,38.92
2023-05-02T18:59:15.336Z,38.86
2023-05-02T19:01:46.941Z,38.86
2023-05-02T19:04:37.833Z,38.92
2023-05-02T19:07:31.033Z,38.94
2023-05-02T19:10:32.712Z,38.95
2023-05-02T19:13:31.765Z,38.94
2023-05-02T19:16:26.112Z,38.95
2023-05-02T19:25:44.114Z,38.96
2023-05-02T19:31:26.365Z,39.00
2023-05-02T19:34:32.505Z,39.01
2023-05-02T19:37:24.499Z,39.02
2023-05-02T19:40:15.740Z,39.04
2023-05-02T19:42:45.673Z,39.07
2023-05-02T19:45:15.722Z,39.08
2023-05-02T19:47:46.311Z,39.07
2023-05-02T19:50:17.320Z,39.08
2023-05-02T19:52:47.339Z,39.08
2023-05-02T19:58:34.697Z,39.09
2023-05-02T20:01:18.018Z,39.09
2023-05-02T20:03:48.111Z,39.09
2023-05-02T20:06:18.291Z,39.08
2023-05-02T20:08:48.388Z,39.10
2023-05-02T20:11:37.360Z,39.09
2023-05-02T20:14:08.885Z,39.12
2023-05-02T20:16:39.082Z,39.13
2023-05-02T20:19:31.942Z,39.14
2023-05-02T20:22:17.901Z,39.13
2023-05-02T20:24:48.001Z,39.15
2023-05-02T20:27:19.589Z,39.14
2023-05-02T20:29:50.803Z,39.17
2023-05-02T20:32:23.399Z,39.16
2023-05-02T20:35:17.564Z,39.19
2023-05-02T20:37:51.769Z,39.20
2023-05-02T20:41:30.773Z,39.21
2023-05-02T20:43:48.735Z,39.24
2023-05-02T20:49:31.100Z,39.30
2023-05-02T20:52:26.415Z,39.35
2023-05-02T20:55:00.089Z,39.36
2023-05-02T20:57:32.046Z,39.36
2023-05-02T21:00:04.696Z,39.37
2023-05-02T21:02:36.856Z,39.40
2023-05-02T21:05:11.302Z,39.43
2023-05-02T21:07:45.421Z,39.45
2023-05-02T21:13:38.923Z,39.46
2023-05-02T21:19:35.556Z,39.46
2023-05-02T21:22:05.475Z,39.42
2023-05-02T21:24:35.483Z,39.42
2023-05-02T21:27:05.737Z,39.55
2023-05-02T21:29:35.750Z,39.55
2023-05-02T21:32:23.604Z,39.55
2023-05-02T21:35:05.334Z,39.53
2023-05-02T21:41:01.596Z,39.51
2023-05-02T21:43:42.163Z,39.55
2023-05-02T21:49:02.104Z,39.63
2023-05-02T21:51:34.704Z,39.64
2023-05-02T21:54:04.981Z,39.64
2023-05-02T21:56:37.495Z,39.60
2023-05-02T22:02:17.976Z,39.58
2023-05-02T22:05:33.086Z,39.64
2023-05-02T22:08:12.336Z,39.67
2023-05-02T22:11:08.870Z,39.68
2023-05-02T22:14:33.320Z,39.69
2023-05-02T22:16:56.679Z,39.60
2023-05-02T22:23:10.581Z,39.65
2023-05-02T22:25:54.033Z,39.75
2023-05-02T22:31:57.994Z,39.80
2023-05-02T22:34:52.377Z,39.66
2023-05-02T22:37:53.922Z,39.69
2023-05-02T22:40:48.590Z,39.70
2023-05-02T22:43:18.920Z,39.75
2023-05-02T22:45:50.334Z,39.79
2023-05-02T22:48:20.343Z,39.81
2023-05-02T22:50:50.380Z,39.66
2023-05-02T22:53:21.791Z,39.66
2023-05-02T22:55:55.418Z,39.69
2023-05-02T23:01:12.777Z,39.77
2023-05-02T23:03:43.845Z,39.77
2023-05-02T23:06:14.013Z,39.82
2023-05-02T23:08:45.280Z,39.65
2023-05-02T23:14:23.777Z,39.67
2023-05-02T23:17:11.776Z,39.73
2023-05-02T23:23:15.069Z,39.82
2023-05-02T23:25:57.067Z,39.75
2023-05-02T23:29:16.751Z,39.68
2023-05-02T23:31:00.603Z,39.63
2023-05-02T23:33:32.749Z,39.59
2023-05-02T23:36:03.791Z,39.75
2023-05-02T23:38:39.641Z,39.80
2023-05-02T23:41:11.087Z,39.75
2023-05-02T23:47:51.357Z,39.62
2023-05-02T23:50:58.131Z,39.49
2023-05-02T23:53:28.071Z,39.53
2023-05-02T23:56:05.541Z,39.71
